Time;durP1;ratioP1;P1;durP2;ratioP2;P2;SDS_P1;SDS_P2;PMS_P1;PMS_P2;Temp;Humidity;BMP_temperature;BMP_pressure;BME280_temperature;BME280_humidity;BME280_pressure;Samples;Min_cycle;Max_cycle;Signal;HPM_P1;HPM_P2
2022/02/13 00:00:16;;;;;;;13.88;5.90;;;2.60;90.30;;;;;;5032532;28;20037;-52
2022/02/13 00:02:44;;;;;;;14.95;6.07;;;2.60;90.30;;;;;;5032464;28;20041;-54
2022/02/13 00:05:10;;;;;;;12.32;5.57;;;2.70;90.50;;;;;;5032444;28;20041;-54
2022/02/13 00:07:36;;;;;;;15.00;5.55;;;2.60;90.40;;;;;;5031785;28;20490;-53
2022/02/13 00:10:04;;;;;;;12.18;6.13;;;2.60;90.50;;;;;;4998297;28;20046;-53
2022/02/13 00:12:30;;;;;;;13.27;6.07;;;2.50;90.60;;;;;;5020067;28;20041;-54
2022/02/13 00:14:56;;;;;;;13.95;6.13;;;2.50;90.60;;;;;;5024135;28;20044;-55
2022/02/13 00:17:23;;;;;;;11.40;5.60;;;2.60;90.60;;;;;;5030518;28;20037;-56
2022/02/13 00:19:50;;;;;;;13.02;6.43;;;2.50;90.70;;;;;;5032181;28;20050;-53
2022/02/13 00:22:17;;;;;;;14.13;5.80;;;2.40;90.90;;;;;;5030088;28;20037;-51
2022/02/13 00:24:43;;;;;;;13.48;6.18;;;2.50;91.00;;;;;;5026302;28;20482;-52
2022/02/13 00:27:09;;;;;;;12.88;6.85;;;2.40;90.90;;;;;;5028513;28;20037;-54
2022/02/13 00:29:35;;;;;;;13.73;6.10;;;2.40;91.10;;;;;;5024937;28;20041;-53
2022/02/13 00:32:01;;;;;;;16.38;6.53;;;2.40;91.30;;;;;;5031926;28;20045;-53
2022/02/13 00:34:28;;;;;;;16.80;6.35;;;2.40;91.20;;;;;;5031657;28;20560;-54
2022/02/13 00:36:53;;;;;;;14.40;6.15;;;2.40;91.50;;;;;;4994148;28;20127;-53
2022/02/13 00:39:19;;;;;;;13.75;6.78;;;2.40;91.30;;;;;;5022801;28;20493;-54
2022/02/13 00:41:44;;;;;;;10.82;5.70;;;2.40;91.40;;;;;;5026063;28;20071;-55
2022/02/13 00:44:10;;;;;;;14.52;6.43;;;2.40;91.50;;;;;;5031972;28;20498;-53
2022/02/13 00:46:36;;;;;;;14.20;6.10;;;2.40;91.50;;;;;;5031396;28;20033;-53
2022/02/13 00:49:02;;;;;;;17.45;6.93;;;2.40;91.90;;;;;;5031494;28;20041;-54
2022/02/13 00:51:27;;;;;;;15.10;6.40;;;2.40;91.60;;;;;;5019525;28;20831;-55
2022/02/13 00:53:53;;;;;;;14.57;5.72;;;2.40;91.80;;;;;;4994426;28;20041;-54
2022/02/13 00:56:20;;;;;;;12.20;6.28;;;2.40;91.90;;;;;;5011886;28;20042;-56
2022/02/13 00:58:46;;;;;;;16.05;6.72;;;2.50;91.80;;;;;;5012092;28;20042;-53
2022/02/13 01:01:12;;;;;;;16.48;6.45;;;2.40;91.80;;;;;;5017311;28;20033;-56
2022/02/13 01:03:38;;;;;;;15.75;6.38;;;2.40;91.90;;;;;;5031339;28;20045;-56
2022/02/13 01:06:04;;;;;;;14.85;6.25;;;2.40;92.00;;;;;;5031266;28;20072;-57
2022/02/13 01:08:29;;;;;;;14.77;6.60;;;2.40;91.80;;;;;;5031733;28;20073;-55
2022/02/13 01:10:55;;;;;;;14.52;6.72;;;2.50;91.70;;;;;;5031715;28;20419;-53
2022/02/13 01:13:21;;;;;;;15.00;6.45;;;2.40;91.80;;;;;;5031389;28;20175;-54
2022/02/13 01:15:46;;;;;;;13.95;5.65;;;2.40;91.80;;;;;;5031161;28;20037;-54
2022/02/13 01:18:13;;;;;;;15.02;6.55;;;2.40;91.90;;;;;;5031279;28;20049;-51
2022/02/13 01:20:39;;;;;;;11.73;6.00;;;2.30;92.00;;;;;;5031725;28;20034;-53
2022/02/13 01:23:04;;;;;;;19.35;6.70;;;2.40;92.00;;;;;;5031181;28;20054;-53
2022/02/13 01:25:30;;;;;;;16.70;7.20;;;2.30;92.20;;;;;;5031600;28;20060;-55
2022/02/13 01:27:55;;;;;;;16.95;6.82;;;2.40;92.30;;;;;;5031028;28;20092;-53
2022/02/13 01:30:21;;;;;;;12.88;6.80;;;2.30;92.40;;;;;;4996544;28;20041;-51
2022/02/13 01:32:46;;;;;;;12.43;6.47;;;2.30;92.50;;;;;;5031243;28;20105;-56
2022/02/13 01:35:12;;;;;;;14.48;6.20;;;2.30;92.50;;;;;;5031208;28;20490;-56
2022/02/13 01:37:38;;;;;;;13.50;5.95;;;2.30;92.50;;;;;;5013525;28;20041;-56
2022/02/13 01:40:05;;;;;;;17.75;6.43;;;2.30;92.70;;;;;;5013723;28;20516;-54
2022/02/13 01:42:31;;;;;;;13.80;6.60;;;2.20;92.70;;;;;;5031251;28;20037;-53
2022/02/13 01:44:58;;;;;;;12.63;6.43;;;2.30;92.60;;;;;;5029550;28;20044;-56
2022/02/13 01:47:24;;;;;;;13.82;6.57;;;2.30;92.60;;;;;;5014957;28;20041;-52
2022/02/13 01:49:50;;;;;;;16.20;6.45;;;2.20;92.80;;;;;;5035208;28;20451;-53
2022/02/13 01:52:16;;;;;;;15.05;6.55;;;2.20;92.90;;;;;;5034850;28;20073;-54
2022/02/13 01:54:42;;;;;;;13.45;6.63;;;2.20;92.80;;;;;;5035196;28;20049;-55
2022/02/13 01:57:10;;;;;;;14.55;6.53;;;2.20;93.00;;;;;;5034596;28;20042;-56
2022/02/13 01:59:36;;;;;;;14.00;6.30;;;2.20;93.10;;;;;;5034576;28;20049;-54
2022/02/13 02:02:02;;;;;;;13.65;6.22;;;2.20;93.20;;;;;;5033286;28;20045;-53
2022/02/13 02:04:27;;;;;;;12.75;5.85;;;2.20;93.10;;;;;;5033130;28;20041;-52
2022/02/13 02:06:53;;;;;;;12.82;6.13;;;2.30;92.80;;;;;;5032468;28;20033;-56
2022/02/13 02:09:18;;;;;;;15.02;6.50;;;2.30;93.00;;;;;;5020541;28;20037;-53
2022/02/13 02:11:44;;;;;;;13.35;6.32;;;2.20;93.00;;;;;;5026216;28;20046;-53
2022/02/13 02:14:10;;;;;;;14.75;6.40;;;2.20;93.20;;;;;;5034611;28;20516;-53
2022/02/13 02:16:36;;;;;;;15.20;6.60;;;2.10;93.30;;;;;;5033048;28;20489;-55
2022/02/13 02:19:02;;;;;;;15.30;6.70;;;2.10;93.60;;;;;;5034562;28;20120;-55
2022/02/13 02:21:27;;;;;;;16.17;7.05;;;2.10;93.70;;;;;;5026073;28;20600;-54
2022/02/13 02:23:53;;;;;;;13.52;6.35;;;2.10;93.60;;;;;;5016844;28;20041;-53
2022/02/13 02:26:18;;;;;;;14.00;6.30;;;2.10;94.10;;;;;;5034272;28;20398;-54
2022/02/13 02:28:45;;;;;;;12.82;6.00;;;2.00;93.70;;;;;;5034121;28;20045;-55
2022/02/13 02:31:11;;;;;;;11.98;6.57;;;2.00;94.00;;;;;;5033123;28;20057;-56
2022/02/13 02:33:36;;;;;;;16.40;6.57;;;2.00;94.10;;;;;;5034393;28;20042;-53
2022/02/13 02:36:02;;;;;;;11.68;6.65;;;2.00;94.50;;;;;;5034071;28;20045;-54
2022/02/13 02:38:27;;;;;;;15.70;7.07;;;1.90;94.30;;;;;;5034187;28;20409;-52
2022/02/13 02:40:53;;;;;;;13.63;6.18;;;1.90;94.40;;;;;;5034336;28;20042;-49
2022/02/13 02:43:19;;;;;;;18.30;7.20;;;1.80;94.70;;;;;;5033644;28;20041;-52
2022/02/13 02:45:45;;;;;;;16.38;6.80;;;1.80;95.00;;;;;;5019802;28;20038;-54
2022/02/13 02:48:10;;;;;;;16.10;7.25;;;1.80;95.20;;;;;;5014294;28;20045;-54
2022/02/13 02:50:36;;;;;;;12.18;6.47;;;1.80;95.30;;;;;;5031234;28;20033;-49
2022/02/13 02:53:04;;;;;;;12.40;6.82;;;1.80;95.30;;;;;;5033107;28;20049;-51
2022/02/13 02:55:30;;;;;;;13.15;6.57;;;1.90;95.30;;;;;;5016020;28;20374;-49
2022/02/13 02:57:56;;;;;;;15.82;6.90;;;1.80;95.30;;;;;;5033472;28;20124;-51
2022/02/13 03:00:21;;;;;;;13.98;6.88;;;1.80;95.50;;;;;;5032505;28;20091;-50
2022/02/13 03:02:47;;;;;;;15.73;6.78;;;1.80;95.50;;;;;;5033669;28;20486;-53
2022/02/13 03:05:12;;;;;;;14.40;6.93;;;1.70;95.60;;;;;;5033792;28;20038;-52
2022/02/13 03:07:38;;;;;;;14.00;6.90;;;1.80;95.60;;;;;;5033526;28;20064;-50
2022/02/13 03:10:04;;;;;;;15.07;7.00;;;1.80;95.60;;;;;;5033191;28;20037;-52
2022/02/13 03:12:30;;;;;;;15.25;6.85;;;1.80;95.90;;;;;;5033427;28;20095;-54
2022/02/13 03:14:55;;;;;;;17.40;6.97;;;1.70;96.10;;;;;;5033429;28;20037;-51
2022/02/13 03:17:51;;;;;;;18.33;7.32;;;1.70;96.30;;;;;;5043846;28;20098;-54
2022/02/13 03:20:17;;;;;;;14.35;7.30;;;1.70;96.40;;;;;;5032330;28;20540;-52
2022/02/13 03:22:42;;;;;;;14.82;6.82;;;1.60;96.50;;;;;;5033290;28;20042;-50
2022/02/13 03:25:08;;;;;;;14.90;7.20;;;1.60;96.70;;;;;;5033167;28;20048;-50
2022/02/13 03:27:34;;;;;;;14.60;7.15;;;1.60;96.90;;;;;;5024691;28;20041;-49
2022/02/13 03:29:59;;;;;;;15.05;6.95;;;1.70;96.80;;;;;;5032134;28;20119;-53
2022/02/13 03:32:25;;;;;;;15.50;6.75;;;1.60;97.10;;;;;;5032951;28;20037;-52
2022/02/13 03:34:50;;;;;;;15.25;6.68;;;1.60;97.50;;;;;;5013391;28;20084;-49
2022/02/13 03:37:16;;;;;;;13.80;6.95;;;1.60;97.30;;;;;;5028192;28;20116;-50
2022/02/13 03:39:42;;;;;;;14.15;6.72;;;1.60;97.60;;;;;;5025875;28;20033;-53
2022/02/13 03:42:08;;;;;;;15.57;6.95;;;1.60;97.50;;;;;;5031363;28;20059;-51
2022/02/13 03:44:36;;;;;;;15.43;7.03;;;1.60;97.30;;;;;;5031824;28;20296;-49
2022/02/13 03:47:03;;;;;;;14.90;7.30;;;1.70;97.50;;;;;;5032417;28;20532;-52
2022/02/13 03:49:29;;;;;;;14.55;6.95;;;1.60;97.60;;;;;;5015372;28;20046;-49
2022/02/13 03:51:55;;;;;;;13.85;7.10;;;1.60;97.70;;;;;;5032903;28;20053;-49
2022/02/13 03:54:21;;;;;;;21.58;7.55;;;1.60;98.00;;;;;;5032258;28;20037;-49
2022/02/13 03:56:47;;;;;;;14.27;6.40;;;1.60;98.30;;;;;;5032351;28;20053;-51
2022/02/13 03:59:13;;;;;;;19.38;7.43;;;1.60;98.50;;;;;;5015214;28;20071;-52
2022/02/13 04:01:38;;;;;;;14.05;7.03;;;1.50;98.40;;;;;;5032364;28;20041;-54
2022/02/13 04:04:04;;;;;;;15.60;7.53;;;1.50;98.80;;;;;;5032367;28;20527;-50
2022/02/13 04:06:30;;;;;;;14.95;7.32;;;1.50;99.10;;;;;;5032283;28;20041;-49
2022/02/13 04:08:55;;;;;;;14.25;7.70;;;1.50;99.00;;;;;;5032007;28;20052;-54
2022/02/13 04:11:21;;;;;;;13.65;7.13;;;1.50;98.80;;;;;;5031884;28;20048;-50
2022/02/13 04:13:47;;;;;;;14.98;7.50;;;1.50;99.10;;;;;;5032271;28;20048;-52
2022/02/13 04:16:12;;;;;;;15.10;7.50;;;1.50;99.30;;;;;;5032202;28;20497;-52
2022/02/13 04:18:38;;;;;;;18.92;7.20;;;1.50;99.20;;;;;;5030673;28;20060;-51
2022/02/13 04:21:04;;;;;;;16.77;7.75;;;1.50;99.20;;;;;;5032357;28;20493;-49
2022/02/13 04:23:31;;;;;;;15.07;7.68;;;1.50;99.20;;;;;;5032011;28;20034;-53
2022/02/13 04:26:01;;;;;;;15.75;7.40;;;1.50;99.20;;;;;;5032067;28;20649;-53
2022/02/13 04:28:28;;;;;;;13.05;7.07;;;1.50;99.20;;;;;;5032131;28;20047;-49
2022/02/13 04:30:54;;;;;;;16.83;7.28;;;1.50;99.50;;;;;;5032096;28;20033;-50
2022/02/13 04:33:20;;;;;;;13.07;7.03;;;1.50;99.50;;;;;;5031633;28;20052;-49
2022/02/13 04:35:45;;;;;;;18.67;7.25;;;1.40;99.30;;;;;;5030638;28;20478;-53
2022/02/13 04:38:11;;;;;;;14.57;6.88;;;1.50;99.60;;;;;;5031670;28;20520;-50
2022/02/13 04:40:36;;;;;;;17.25;7.50;;;1.40;99.70;;;;;;5014387;28;20052;-51
2022/02/13 04:43:02;;;;;;;13.80;7.18;;;1.40;99.90;;;;;;5031982;28;20049;-49
2022/02/13 04:45:28;;;;;;;14.48;7.28;;;1.40;99.90;;;;;;5031862;28;20091;-50
2022/02/13 04:47:53;;;;;;;11.98;6.95;;;1.40;99.60;;;;;;5031176;28;20033;-50
2022/02/13 04:50:21;;;;;;;15.70;7.50;;;1.40;99.80;;;;;;5031691;28;20052;-54
2022/02/13 04:52:51;;;;;;;16.05;7.13;;;1.30;99.80;;;;;;5031598;28;20046;-49
2022/02/13 04:55:17;;;;;;;16.02;7.22;;;1.30;99.90;;;;;;5032018;28;20524;-55
2022/02/13 04:57:44;;;;;;;16.10;7.25;;;1.30;99.90;;;;;;5031617;28;20048;-55
2022/02/13 05:00:10;;;;;;;15.48;7.05;;;1.30;99.90;;;;;;5031827;28;20045;-54
2022/02/13 05:02:37;;;;;;;14.05;6.80;;;1.30;99.90;;;;;;5029377;28;20038;-55
2022/02/13 05:05:03;;;;;;;16.17;7.20;;;1.30;99.90;;;;;;5023510;28;20371;-54
2022/02/13 05:07:28;;;;;;;15.43;7.07;;;1.30;99.90;;;;;;5031231;28;20111;-55
2022/02/13 05:09:54;;;;;;;13.95;6.80;;;1.20;99.90;;;;;;5013943;28;20081;-55
2022/02/13 05:12:20;;;;;;;12.30;7.00;;;1.30;99.90;;;;;;5031515;28;20099;-54
2022/02/13 05:14:46;;;;;;;17.30;7.55;;;1.20;99.90;;;;;;5031265;28;20048;-55
2022/02/13 05:17:12;;;;;;;13.15;7.30;;;1.20;99.90;;;;;;5031138;28;20050;-55
2022/02/13 05:19:37;;;;;;;14.02;7.10;;;1.20;99.90;;;;;;5034612;28;20056;-54
2022/02/13 05:22:03;;;;;;;17.65;7.53;;;1.10;99.90;;;;;;5034298;28;20049;-54
2022/02/13 05:24:29;;;;;;;14.10;7.40;;;1.10;99.90;;;;;;5035505;28;20041;-54
2022/02/13 05:26:54;;;;;;;19.67;7.60;;;1.10;99.90;;;;;;5035418;28;20069;-53
2022/02/13 05:29:20;;;;;;;13.13;7.15;;;1.10;99.90;;;;;;5035455;28;20464;-53
2022/02/13 05:31:45;;;;;;;16.75;7.03;;;1.10;99.90;;;;;;5035042;28;20078;-53
2022/02/13 05:34:15;;;;;;;14.38;6.75;;;1.10;99.90;;;;;;5035401;28;20041;-52
2022/02/13 05:36:43;;;;;;;14.55;6.97;;;1.10;99.90;;;;;;5034874;28;20389;-53
2022/02/13 05:39:09;;;;;;;14.90;7.57;;;1.10;99.90;;;;;;5017734;28;20040;-53
2022/02/13 05:41:35;;;;;;;14.75;7.72;;;1.10;99.90;;;;;;5035139;28;20405;-53
2022/02/13 05:44:00;;;;;;;13.70;7.10;;;1.10;99.90;;;;;;5035077;28;20120;-52
2022/02/13 05:46:26;;;;;;;16.98;6.95;;;1.10;99.90;;;;;;5034425;28;20040;-53
2022/02/13 05:48:52;;;;;;;14.43;6.45;;;1.10;99.90;;;;;;5034893;28;20037;-53
2022/02/13 05:51:18;;;;;;;14.10;6.97;;;1.20;99.90;;;;;;5035024;28;20124;-52
2022/02/13 05:53:44;;;;;;;13.32;7.07;;;1.10;99.90;;;;;;5033630;28;20338;-53
2022/02/13 05:56:09;;;;;;;15.43;7.30;;;1.10;99.90;;;;;;5034911;28;20045;-54
2022/02/13 05:58:39;;;;;;;13.35;6.47;;;1.10;99.90;;;;;;5033321;28;20091;-54
2022/02/13 06:01:04;;;;;;;13.88;7.18;;;1.10;99.90;;;;;;5032186;28;20049;-53
2022/02/13 06:03:30;;;;;;;14.07;7.28;;;1.10;99.90;;;;;;5034820;28;20056;-54
2022/02/13 06:05:56;;;;;;;17.38;7.28;;;1.10;99.90;;;;;;5034663;28;20800;-54
2022/02/13 06:08:22;;;;;;;13.60;7.07;;;1.10;99.90;;;;;;5016965;28;20104;-53
2022/02/13 06:10:48;;;;;;;16.45;7.07;;;1.10;99.90;;;;;;5034687;28;20537;-53
2022/02/13 06:13:14;;;;;;;13.50;6.85;;;1.10;99.90;;;;;;5033385;28;20124;-54
2022/02/13 06:15:40;;;;;;;17.30;7.57;;;1.00;99.90;;;;;;5033207;28;20064;-53
2022/02/13 06:18:05;;;;;;;15.88;7.40;;;1.00;99.90;;;;;;5034452;28;20116;-54
2022/02/13 06:20:31;;;;;;;16.17;6.80;;;1.00;99.90;;;;;;5034447;28;20587;-53
2022/02/13 06:22:56;;;;;;;14.43;6.72;;;1.00;99.90;;;;;;5035085;28;20489;-53
2022/02/13 06:25:22;;;;;;;14.30;6.68;;;1.00;99.90;;;;;;5034208;28;20041;-51
2022/02/13 06:27:48;;;;;;;15.38;7.35;;;1.00;99.90;;;;;;5034137;28;20045;-52
2022/02/13 06:30:13;;;;;;;13.70;6.97;;;1.00;99.90;;;;;;5034421;28;20041;-50
2022/02/13 06:32:39;;;;;;;18.00;6.88;;;1.00;99.90;;;;;;5032466;28;20128;-54
2022/02/13 06:35:05;;;;;;;14.65;7.15;;;1.00;99.90;;;;;;5034127;28;20064;-50
2022/02/13 06:37:31;;;;;;;14.88;6.95;;;1.00;99.90;;;;;;5033769;28;20088;-54
2022/02/13 06:39:57;;;;;;;13.25;6.47;;;1.00;99.90;;;;;;5034025;28;20223;-50
2022/02/13 06:42:23;;;;;;;18.25;7.40;;;1.10;99.90;;;;;;5034059;28;20052;-56
2022/02/13 06:44:50;;;;;;;11.88;6.30;;;1.10;99.90;;;;;;5034098;28;20038;-54
2022/02/13 06:47:16;;;;;;;13.98;6.97;;;1.10;99.90;;;;;;5033692;28;20486;-54
2022/02/13 06:49:41;;;;;;;13.30;7.22;;;1.10;99.90;;;;;;5033923;28;20044;-55
2022/02/13 06:52:07;;;;;;;13.20;6.45;;;1.10;99.90;;;;;;5033839;28;20037;-53
2022/02/13 06:54:32;;;;;;;13.75;7.10;;;1.10;99.90;;;;;;5033768;28;20072;-55
2022/02/13 06:56:58;;;;;;;11.98;6.53;;;1.20;99.90;;;;;;5033721;28;20072;-54
2022/02/13 06:59:23;;;;;;;15.35;7.18;;;1.10;99.90;;;;;;5033824;28;20075;-54
2022/02/13 07:01:50;;;;;;;15.70;6.50;;;1.10;99.90;;;;;;5033649;28;20072;-51
2022/02/13 07:04:16;;;;;;;15.02;6.72;;;1.20;99.90;;;;;;5016152;28;20405;-54
2022/02/13 07:06:41;;;;;;;12.23;6.00;;;1.20;99.90;;;;;;5033196;28;20041;-56
2022/02/13 07:09:07;;;;;;;12.82;6.55;;;1.30;99.90;;;;;;5031638;28;20132;-55
2022/02/13 07:11:33;;;;;;;12.70;6.72;;;1.30;99.90;;;;;;5021111;28;20475;-54
2022/02/13 07:13:59;;;;;;;14.57;7.07;;;1.30;99.90;;;;;;5014929;28;20038;-53
2022/02/13 07:16:25;;;;;;;16.60;6.88;;;1.40;99.90;;;;;;5015398;28;20446;-54
2022/02/13 07:18:51;;;;;;;14.63;7.32;;;1.40;99.90;;;;;;5021384;28;20038;-52
2022/02/13 07:21:17;;;;;;;12.77;7.00;;;1.40;99.90;;;;;;5023737;28;20107;-54
2022/02/13 07:23:42;;;;;;;13.98;6.78;;;1.40;99.90;;;;;;5033443;28;20041;-54
2022/02/13 07:26:08;;;;;;;13.68;6.78;;;1.50;99.90;;;;;;5032312;28;20029;-53
2022/02/13 07:31:18;;;;;;;13.45;6.63;;;1.60;99.90;;;;;;5033054;28;20038;-52
2022/02/13 07:33:43;;;;;;;11.88;6.03;;;1.60;99.90;;;;;;5033195;28;20056;-52
2022/02/13 07:36:09;;;;;;;12.10;6.45;;;1.70;99.90;;;;;;5032621;28;20038;-53
2022/02/13 07:38:35;;;;;;;14.70;6.80;;;1.70;99.90;;;;;;5032672;28;20041;-55
2022/02/13 07:41:00;;;;;;;14.77;6.80;;;1.80;99.90;;;;;;5032897;28;20045;-53
2022/02/13 07:43:26;;;;;;;11.43;6.53;;;1.80;99.90;;;;;;5032863;28;20044;-51
2022/02/13 07:45:52;;;;;;;12.88;6.22;;;1.90;99.90;;;;;;4998097;28;20037;-53
2022/02/13 07:48:17;;;;;;;15.55;6.32;;;1.90;99.90;;;;;;5032733;28;20377;-54
2022/02/13 07:50:43;;;;;;;14.90;6.63;;;2.00;99.90;;;;;;5032612;28;20037;-53
2022/02/13 07:53:08;;;;;;;13.57;6.30;;;2.00;99.90;;;;;;5032578;28;20037;-53
2022/02/13 07:55:34;;;;;;;11.23;6.22;;;2.00;99.90;;;;;;5032560;28;20077;-54
2022/02/13 07:57:59;;;;;;;11.68;6.45;;;2.00;99.90;;;;;;5032466;28;20509;-54
2022/02/13 08:00:25;;;;;;;11.27;6.32;;;2.10;99.90;;;;;;5032411;28;20490;-55
2022/02/13 08:02:51;;;;;;;12.20;6.45;;;2.10;99.90;;;;;;5032591;28;20042;-53
2022/02/13 08:05:18;;;;;;;11.02;6.60;;;2.10;99.90;;;;;;5032321;28;20129;-51
2022/02/13 08:07:46;;;;;;;11.85;6.35;;;2.20;99.90;;;;;;5031993;28;20049;-56
2022/02/13 08:10:12;;;;;;;11.00;6.07;;;2.30;99.90;;;;;;5032534;28;20577;-54
2022/02/13 08:12:38;;;;;;;13.60;6.35;;;2.30;99.90;;;;;;5031912;28;20041;-55
2022/02/13 08:15:04;;;;;;;10.80;6.22;;;2.30;99.90;;;;;;5032009;28;20080;-53
2022/02/13 08:17:29;;;;;;;13.93;6.32;;;2.30;99.90;;;;;;5032291;28;20595;-52
2022/02/13 08:19:55;;;;;;;11.15;6.35;;;2.40;99.90;;;;;;5027867;28;20413;-53
2022/02/13 08:22:21;;;;;;;15.77;6.43;;;2.40;99.90;;;;;;5027289;28;20413;-54
2022/02/13 08:24:46;;;;;;;9.45;5.72;;;2.40;99.90;;;;;;5022651;28;20037;-53
2022/02/13 08:27:12;;;;;;;11.02;5.93;;;2.50;99.90;;;;;;5013672;28;20041;-53
2022/02/13 08:29:38;;;;;;;11.15;5.90;;;2.50;99.90;;;;;;5025511;28;20053;-54
2022/02/13 08:32:04;;;;;;;11.95;6.35;;;2.60;99.90;;;;;;5019399;28;20076;-55
2022/02/13 08:34:29;;;;;;;12.80;6.57;;;2.60;99.90;;;;;;5025539;28;20034;-53
2022/02/13 08:36:55;;;;;;;13.88;6.57;;;2.60;99.90;;;;;;5019168;28;20045;-54
2022/02/13 08:39:21;;;;;;;14.13;6.63;;;2.70;99.90;;;;;;5030552;28;20048;-53
2022/02/13 08:41:46;;;;;;;11.90;6.20;;;2.70;99.90;;;;;;5031793;28;20047;-53
2022/02/13 08:44:12;;;;;;;13.52;6.90;;;2.80;99.90;;;;;;5031510;28;20064;-55
2022/02/13 08:46:38;;;;;;;11.25;6.32;;;2.80;99.90;;;;;;5030477;28;20036;-54
2022/02/13 08:49:04;;;;;;;12.55;6.15;;;2.80;99.90;;;;;;5025033;28;20037;-56
2022/02/13 08:51:29;;;;;;;11.65;6.05;;;2.90;99.90;;;;;;5027558;28;20413;-54
2022/02/13 08:53:55;;;;;;;12.50;6.10;;;3.00;99.60;;;;;;5027767;28;20661;-55
2022/02/13 08:56:21;;;;;;;13.77;7.00;;;3.00;99.60;;;;;;5024756;28;20556;-55
2022/02/13 08:58:47;;;;;;;12.00;5.70;;;3.10;99.40;;;;;;5030772;28;20200;-53
2022/02/13 09:01:17;;;;;;;9.85;5.43;;;3.20;99.00;;;;;;5032892;28;20033;-54
2022/02/13 09:03:42;;;;;;;13.15;6.22;;;3.20;98.90;;;;;;5029721;28;20406;-54
2022/02/13 09:06:08;;;;;;;11.23;6.60;;;3.20;98.90;;;;;;5029992;28;20034;-53
2022/02/13 09:08:34;;;;;;;13.07;6.57;;;3.30;99.20;;;;;;5030337;28;20033;-54
2022/02/13 09:11:00;;;;;;;16.40;6.47;;;3.30;99.10;;;;;;5023807;28;20033;-53
2022/02/13 09:13:26;;;;;;;12.32;5.95;;;3.40;98.80;;;;;;5023779;28;20569;-54
2022/02/13 09:15:52;;;;;;;11.07;6.25;;;3.50;98.80;;;;;;5034369;28;20102;-54
2022/02/13 09:18:17;;;;;;;9.50;6.30;;;3.50;98.70;;;;;;5029607;28;20400;-54
2022/02/13 09:20:46;;;;;;;14.02;6.30;;;3.60;98.20;;;;;;5027425;28;20500;-54
2022/02/13 09:23:13;;;;;;;13.18;6.28;;;3.60;98.30;;;;;;5030036;28;20057;-55
2022/02/13 09:25:40;;;;;;;11.40;6.25;;;3.70;97.90;;;;;;5031364;28;20094;-54
2022/02/13 09:28:07;;;;;;;12.15;6.20;;;3.80;97.60;;;;;;5031307;28;20094;-56
2022/02/13 09:30:32;;;;;;;11.32;6.22;;;3.80;97.80;;;;;;5031065;28;20490;-55
2022/02/13 09:32:58;;;;;;;12.45;6.22;;;3.90;97.50;;;;;;5029611;28;20056;-53
2022/02/13 09:35:23;;;;;;;9.43;5.78;;;3.90;97.50;;;;;;5029546;28;20044;-54
2022/02/13 09:37:50;;;;;;;12.90;5.93;;;4.00;96.80;;;;;;5029264;28;20042;-54
2022/02/13 09:40:17;;;;;;;11.85;6.40;;;4.00;96.70;;;;;;5029354;28;20675;-53
2022/02/13 09:42:44;;;;;;;12.10;6.82;;;4.00;97.10;;;;;;5029876;28;20049;-56
2022/02/13 09:45:10;;;;;;;10.80;5.82;;;4.00;97.30;;;;;;5028299;28;20042;-54
2022/02/13 09:47:40;;;;;;;12.07;6.03;;;4.10;97.00;;;;;;5029388;28;20034;-54
2022/02/13 09:50:07;;;;;;;13.32;6.22;;;4.10;96.50;;;;;;5029022;28;20041;-54
2022/02/13 09:52:33;;;;;;;11.70;6.00;;;4.10;96.90;;;;;;5025064;28;20034;-54
2022/02/13 09:54:58;;;;;;;10.77;6.05;;;4.20;96.50;;;;;;5029499;28;20045;-53
2022/02/13 10:00:09;;;;;;;13.18;6.30;;;4.30;96.20;;;;;;5027635;28;20108;-54
2022/02/13 10:02:40;;;;;;;10.57;6.20;;;4.40;96.40;;;;;;5028874;28;20056;-55
2022/02/13 10:05:09;;;;;;;13.45;5.93;;;4.40;96.40;;;;;;5009388;28;20038;-54
2022/02/13 10:07:36;;;;;;;14.45;6.70;;;4.40;96.10;;;;;;5025720;28;20033;-53
2022/02/13 10:10:05;;;;;;;11.10;5.93;;;4.50;95.90;;;;;;5028963;28;20041;-53
2022/02/13 10:12:42;;;;;;;8.95;5.70;;;4.50;95.80;;;;;;5021220;28;20067;-54
2022/02/13 10:15:29;;;;;;;10.25;5.68;;;4.60;95.10;;;;;;5011838;28;20033;-54
2022/02/13 10:17:54;;;;;;;13.02;6.70;;;4.60;95.70;;;;;;5025100;28;20087;-56
2022/02/13 10:20:29;;;;;;;10.80;6.30;;;4.60;95.80;;;;;;5014323;28;20041;-56
2022/02/13 10:22:55;;;;;;;14.10;6.25;;;4.70;95.50;;;;;;5029896;28;20442;-55
2022/02/13 10:25:21;;;;;;;13.23;6.45;;;4.70;95.30;;;;;;5030570;28;20061;-56
2022/02/13 10:27:48;;;;;;;10.85;6.20;;;4.80;95.20;;;;;;5010945;28;20046;-53
2022/02/13 10:30:36;;;;;;;11.93;6.40;;;4.90;94.80;;;;;;5024855;28;20051;-54
2022/02/13 10:33:24;;;;;;;10.55;6.32;;;4.90;95.00;;;;;;5028076;28;20079;-55
2022/02/13 10:36:10;;;;;;;10.05;6.15;;;4.90;95.00;;;;;;5032470;28;20105;-54
2022/02/13 10:38:42;;;;;;;11.93;6.05;;;5.00;94.80;;;;;;5032855;28;20034;-54
2022/02/13 10:41:13;;;;;;;12.68;5.80;;;5.10;94.10;;;;;;5033029;28;20056;-57
2022/02/13 10:44:02;;;;;;;12.43;6.03;;;5.10;94.10;;;;;;5033954;28;20046;-52
2022/02/13 10:46:33;;;;;;;11.20;6.40;;;5.20;94.40;;;;;;5026424;28;20033;-56
2022/02/13 10:48:59;;;;;;;10.18;6.13;;;5.20;94.70;;;;;;5024987;28;20029;-55
2022/02/13 10:51:25;;;;;;;13.02;6.90;;;5.30;95.30;;;;;;5033891;28;20049;-53
2022/02/13 10:53:52;;;;;;;12.65;6.00;;;5.30;94.80;;;;;;5033393;28;20079;-56
2022/02/13 10:56:20;;;;;;;10.50;5.88;;;5.40;95.60;;;;;;5033676;28;20030;-55
2022/02/13 10:58:46;;;;;;;13.18;6.72;;;5.40;95.30;;;;;;5015112;28;20046;-56
2022/02/13 11:01:15;;;;;;;10.23;6.03;;;5.50;94.90;;;;;;5013461;28;20037;-56
2022/02/13 11:03:44;;;;;;;9.80;5.85;;;5.50;95.60;;;;;;5024883;28;20034;-53
2022/02/13 11:06:10;;;;;;;10.60;6.60;;;5.60;95.40;;;;;;5026417;28;20044;-55
2022/02/13 11:08:47;;;;;;;12.30;5.97;;;5.60;95.70;;;;;;5022259;28;20034;-55
2022/02/13 11:11:13;;;;;;;11.02;6.32;;;5.70;95.30;;;;;;5028391;28;20116;-55
2022/02/13 11:13:39;;;;;;;12.50;6.43;;;5.80;95.70;;;;;;5026163;28;20045;-56
2022/02/13 11:16:27;;;;;;;11.45;5.97;;;5.90;95.50;;;;;;5029053;28;20497;-56
2022/02/13 11:18:54;;;;;;;10.10;5.60;;;6.00;95.50;;;;;;5032214;28;20483;-55
2022/02/13 11:21:22;;;;;;;12.65;5.95;;;6.10;94.60;;;;;;5032303;28;20072;-56
2022/02/13 11:23:54;;;;;;;11.98;6.47;;;6.20;94.90;;;;;;5032866;28;20033;-55
2022/02/13 11:26:34;;;;;;;11.88;6.25;;;6.20;94.80;;;;;;5030495;28;20149;-56
2022/02/13 11:29:00;;;;;;;10.45;6.32;;;6.30;94.90;;;;;;5031080;28;20037;-54
2022/02/13 11:31:28;;;;;;;11.10;5.80;;;6.50;93.20;;;;;;5029916;28;20524;-53
2022/02/13 11:33:54;;;;;;;12.18;6.35;;;6.50;93.20;;;;;;5029986;28;20120;-56
2022/02/13 11:36:20;;;;;;;9.93;6.15;;;6.60;92.80;;;;;;5031462;28;20087;-56
2022/02/13 11:38:51;;;;;;;10.13;5.55;;;6.70;93.10;;;;;;5032021;28;20049;-55
2022/02/13 11:41:50;;;;;;;9.50;6.00;;;6.70;92.20;;;;;;5031183;28;20124;-56
2022/02/13 11:44:37;;;;;;;11.13;6.30;;;6.80;92.80;;;;;;5032861;28;20033;-53
2022/02/13 11:47:06;;;;;;;8.77;5.50;;;6.80;92.30;;;;;;5031209;28;20072;-56
2022/02/13 11:49:31;;;;;;;11.30;5.45;;;6.80;93.30;;;;;;5032447;28;20503;-56
2022/02/13 11:52:00;;;;;;;9.23;5.40;;;6.80;92.50;;;;;;5031345;28;20076;-57
2022/02/13 11:54:38;;;;;;;13.18;5.60;;;6.90;91.70;;;;;;5032506;28;20037;-56
2022/02/13 11:57:28;;;;;;;11.15;5.10;;;7.00;90.60;;;;;;5043380;28;20068;-56
2022/02/13 11:59:56;;;;;;;8.57;5.20;;;7.10;90.20;;;;;;5012536;28;20046;-56
2022/02/13 12:02:31;;;;;;;10.57;5.30;;;7.10;90.30;;;;;;5023748;28;20423;-56
2022/02/13 12:05:05;;;;;;;8.45;5.13;;;7.20;89.60;;;;;;5031026;28;20553;-54
2022/02/13 12:07:43;;;;;;;9.50;4.93;;;7.20;89.50;;;;;;5031340;28;20525;-56
2022/02/13 12:10:11;;;;;;;10.48;5.38;;;7.30;85.90;;;;;;5030577;28;20067;-56
2022/02/13 12:12:38;;;;;;;9.82;5.63;;;7.40;88.00;;;;;;5029075;28;20128;-57
2022/02/13 12:15:04;;;;;;;9.50;5.55;;;7.40;88.20;;;;;;5028226;28;20049;-58
2022/02/13 12:17:30;;;;;;;10.10;5.70;;;7.40;86.90;;;;;;5031412;28;20099;-56
2022/02/13 12:20:04;;;;;;;9.15;5.30;;;7.50;84.20;;;;;;5029214;28;20045;-56
2022/02/13 12:22:30;;;;;;;10.82;5.50;;;7.50;83.50;;;;;;5018741;28;20041;-56
2022/02/13 12:24:58;;;;;;;8.18;5.20;;;7.60;81.80;;;;;;5015941;28;20082;-54
2022/02/13 12:27:25;;;;;;;9.07;5.20;;;7.60;82.90;;;;;;5017256;28;20037;-51
2022/02/13 12:30:10;;;;;;;9.35;5.25;;;7.60;83.00;;;;;;5023136;28;20033;-54
2022/02/13 12:32:38;;;;;;;10.45;5.53;;;7.60;85.30;;;;;;5020690;28;20120;-55
2022/02/13 12:35:06;;;;;;;9.07;5.38;;;7.60;82.90;;;;;;5024164;28;20119;-56
2022/02/13 12:37:42;;;;;;;9.82;5.50;;;7.60;84.00;;;;;;5022145;28;20045;-56
2022/02/13 12:40:13;;;;;;;9.15;5.10;;;7.70;84.20;;;;;;5024178;28;20067;-55
2022/02/13 12:42:41;;;;;;;8.68;5.03;;;7.70;82.60;;;;;;5031325;28;20042;-56
2022/02/13 12:45:15;;;;;;;10.82;5.15;;;7.80;80.90;;;;;;5031726;28;20034;-54
2022/02/13 12:47:47;;;;;;;8.57;5.10;;;7.80;82.50;;;;;;5031124;28;20110;-56
2022/02/13 12:50:16;;;;;;;9.88;5.22;;;7.80;84.30;;;;;;5031828;28;20163;-54
2022/02/13 12:52:42;;;;;;;9.05;5.45;;;7.80;82.40;;;;;;5024130;28;20049;-54